Current Weather

Prince Mohammad Bin Abdulaziz

Prince Mohammad Bin Abdulaziz, Saudi Arabia (OEMA)

Report from: Wednesday, May 29, 2024 12:00 PM +03
Current time: Wednesday, May 29, 2024 12:52 PM +03

Nearby weather – Weather history – Daily summaries
Weather forecast

Temperature42.0°C (107.6°F)
Heat index38.3°C (100.9°F)
Dew point-3.0°C (26.6°F)
Winds 4 kts (2.1 m/s, 4.6 mph) Southwest (230°)
Clouds Sky clear
Altimeter29.85 in.Hg (1011 mB)
Relative humidity6 %
Density altitude3,180 ft. (969 m)
Remarks Ceiling and visibility OK
No significant changes expected in the next two hours
Flight conditions Visual Meteorological Conditions
Raw dataOEMA 290900Z 23004KT CAVOK 42/M03 Q1011 NOSIG
An error has occurred. This application may no longer respond until reloaded. Reload 🗙